Tyrone, Colorado
Current Conditions -  °F | °C
As of 12:54 PM on Wednesday 28 Jan 2015 (Local Time) from KTAD Reporting Station
Clear Clear  
Wind Chill: 62°   Ceiling: Unl
Heat Index: 62°   Visibility: 10mi
Dew Point: 26°   Wind: 18mph
Humidity: 25%   Direction: 350°N
Pressure: 30.05"   Gusts: NA
Location:  37.5307°N, 104.063°W
Report Text: KTAD 281954Z AUTO 35016KT 10SM CLR 17/M03 A3005 RMK AO2 PK WND 33026/1925 SLP137 T01671033 $
Loading
Personal Weather Stations






























Interactive Weather Map New forecast layout! Learn more

10-Day Weather Forecast

Advertisements
Track Severe Weather on mobile